createdAt,value
2019-03-23T00:03:34.376Z,9.44
2019-03-23T00:06:30.754Z,9.26
2019-03-23T00:09:08.219Z,9.16
2019-03-23T00:11:58.549Z,9.15
2019-03-23T00:14:48.849Z,8.97
2019-03-23T00:17:39.155Z,9.11
2019-03-23T00:20:29.472Z,9.17
2019-03-23T00:23:19.798Z,9.15
2019-03-23T00:25:50.730Z,9.11
2019-03-23T00:28:41.063Z,9.16
2019-03-23T00:31:31.390Z,9.10
2019-03-23T00:34:21.700Z,8.86
2019-03-23T00:37:12.026Z,8.92
2019-03-23T00:40:02.350Z,8.76
2019-03-23T00:42:52.671Z,8.58
2019-03-23T00:45:42.980Z,8.41
2019-03-23T00:48:13.913Z,8.38
2019-03-23T00:51:04.315Z,8.26
2019-03-23T00:53:54.683Z,8.15
2019-03-23T00:56:45.013Z,8.40
2019-03-23T00:59:35.320Z,8.73
2019-03-23T01:02:25.618Z,8.71
2019-03-23T01:05:16.050Z,8.44
2019-03-23T01:08:06.436Z,8.40
2019-03-23T01:10:56.777Z,8.25
2019-03-23T01:14:05.986Z,8.35
2019-03-23T01:16:56.392Z,8.46
2019-03-23T01:19:46.693Z,8.31
2019-03-23T01:22:37.148Z,8.30
2019-03-23T01:25:28.317Z,8.14
2019-03-23T01:28:18.749Z,8.03
2019-03-23T01:31:09.061Z,7.96
2019-03-23T01:33:59.386Z,7.92
2019-03-23T01:36:49.677Z,7.83
2019-03-23T01:39:40.054Z,7.75
2019-03-23T01:42:11.041Z,7.72
2019-03-23T01:45:01.387Z,7.70
2019-03-23T01:47:51.667Z,7.73
2019-03-23T01:50:42.033Z,7.62
2019-03-23T01:53:32.342Z,7.49
2019-03-23T01:56:22.685Z,7.37
2019-03-23T02:01:56.775Z,7.16
2019-03-23T02:04:47.115Z,7.14
2019-03-23T02:07:37.481Z,7.06
2019-03-23T02:10:27.802Z,6.97
2019-03-23T02:13:18.131Z,6.94
2019-03-23T02:16:08.444Z,7.28
2019-03-23T02:18:58.783Z,7.30
2019-03-23T02:21:49.076Z,7.27
2019-03-23T02:24:39.451Z,7.31
2019-03-23T02:27:29.779Z,7.40
2019-03-23T02:30:20.159Z,7.35
2019-03-23T02:33:10.566Z,7.26
2019-03-23T02:36:00.945Z,7.24
2019-03-23T02:38:51.281Z,7.25
2019-03-23T02:41:41.673Z,7.32
2019-03-23T02:44:32.003Z,7.20
2019-03-23T02:47:41.116Z,7.18
2019-03-23T02:50:31.428Z,7.12
2019-03-23T02:53:21.771Z,7.13
2019-03-23T02:56:12.064Z,7.14
2019-03-23T02:59:03.332Z,7.09
2019-03-23T03:01:34.340Z,7.18
2019-03-23T03:04:05.261Z,7.31
2019-03-23T03:06:55.561Z,7.17
2019-03-23T03:09:45.913Z,6.99
2019-03-23T03:12:36.227Z,6.82
2019-03-23T03:15:26.569Z,6.93
2019-03-23T03:18:17.016Z,6.90
2019-03-23T03:21:07.349Z,6.86
2019-03-23T03:23:57.644Z,6.71
2019-03-23T03:26:47.969Z,6.65
2019-03-23T03:29:38.273Z,6.51
2019-03-23T03:32:28.593Z,6.45
2019-03-23T03:35:18.895Z,6.36
2019-03-23T03:38:09.250Z,6.33
2019-03-23T03:40:59.642Z,6.27
2019-03-23T03:43:49.995Z,6.24
2019-03-23T03:46:40.362Z,6.15
2019-03-23T03:49:30.690Z,6.26
2019-03-23T03:52:03.350Z,6.30
2019-03-23T03:54:53.665Z,6.33
2019-03-23T03:57:43.972Z,6.31
2019-03-23T04:00:34.300Z,6.27
2019-03-23T04:03:06.860Z,6.24
2019-03-23T04:05:37.785Z,6.13
2019-03-23T04:08:28.082Z,6.06
2019-03-23T04:10:59.043Z,5.99
2019-03-23T04:13:49.336Z,5.94
2019-03-23T04:16:39.663Z,5.82
2019-03-23T04:19:29.972Z,5.83
2019-03-23T04:22:20.300Z,5.83
2019-03-23T04:25:10.707Z,5.91
2019-03-23T04:28:01.030Z,5.95
2019-03-23T04:30:33.594Z,5.89
2019-03-23T04:33:04.591Z,5.75
2019-03-23T04:35:54.914Z,5.66
2019-03-23T04:38:45.279Z,5.65
2019-03-23T04:41:35.610Z,5.62
2019-03-23T04:44:26.901Z,5.57
2019-03-23T04:47:17.345Z,5.51
2019-03-23T04:50:08.623Z,5.60
2019-03-23T04:52:58.962Z,5.64
2019-03-23T04:55:49.319Z,5.63
2019-03-23T04:58:39.679Z,5.80
2019-03-23T05:01:30.056Z,5.81
2019-03-23T05:04:01.134Z,5.76
2019-03-23T05:06:32.118Z,5.66
2019-03-23T05:09:03.261Z,5.59
2019-03-23T05:11:53.604Z,5.54
2019-03-23T05:14:43.945Z,5.51
2019-03-23T05:17:34.260Z,5.53
2019-03-23T05:20:06.211Z,5.52
2019-03-23T05:22:56.530Z,5.61
2019-03-23T05:25:46.867Z,5.73
2019-03-23T05:28:37.169Z,5.76
2019-03-23T05:31:08.097Z,5.81
2019-03-23T05:33:58.397Z,5.83
2019-03-23T05:36:29.734Z,5.88
2019-03-23T05:39:20.042Z,5.92
2019-03-23T05:42:10.824Z,5.99
2019-03-23T05:45:01.122Z,6.07
2019-03-23T05:47:32.269Z,6.16
2019-03-23T05:50:22.589Z,6.24
2019-03-23T05:53:12.943Z,6.32
2019-03-23T05:56:03.258Z,6.40
2019-03-23T05:58:53.582Z,6.48
2019-03-23T06:01:43.910Z,6.55
2019-03-23T06:04:52.996Z,6.68
2019-03-23T06:07:43.314Z,6.77
2019-03-23T06:10:33.649Z,6.88
2019-03-23T06:13:23.976Z,6.98
2019-03-23T06:16:14.333Z,7.10
2019-03-23T06:19:04.622Z,7.19
2019-03-23T06:21:54.988Z,7.33
2019-03-23T06:24:45.329Z,7.40
2019-03-23T06:27:35.635Z,7.53
2019-03-23T06:30:25.936Z,7.67
2019-03-23T06:32:56.839Z,7.78
2019-03-23T06:35:27.768Z,7.92
2019-03-23T06:38:18.077Z,8.06
2019-03-23T06:41:08.387Z,8.21
2019-03-23T06:43:58.725Z,8.37
2019-03-23T06:46:49.034Z,8.52
2019-03-23T06:49:39.335Z,8.67
2019-03-23T06:52:29.648Z,8.79
2019-03-23T06:55:20.009Z,8.91
2019-03-23T06:58:10.358Z,9.11
2019-03-23T07:01:00.847Z,9.19
2019-03-23T07:03:51.181Z,9.33
2019-03-23T07:06:41.477Z,9.46
2019-03-23T07:09:31.822Z,9.58
2019-03-23T07:12:22.105Z,9.77
2019-03-23T07:18:28.596Z,9.90
2019-03-23T07:21:18.932Z,10.00
2019-03-23T07:24:10.245Z,10.11
2019-03-23T07:26:41.786Z,10.25
2019-03-23T07:29:32.088Z,10.34
2019-03-23T07:32:22.458Z,10.41
2019-03-23T07:35:12.799Z,10.53
2019-03-23T07:38:03.171Z,10.74
2019-03-23T07:40:53.467Z,10.73
2019-03-23T07:43:43.922Z,10.90
2019-03-23T07:46:14.893Z,10.95
2019-03-23T07:49:05.328Z,10.96
2019-03-23T07:51:55.641Z,10.95
2019-03-23T07:54:46.023Z,11.07
2019-03-23T07:57:36.363Z,11.17
2019-03-23T08:00:26.710Z,11.29
2019-03-23T08:03:17.042Z,11.38
2019-03-23T08:06:07.402Z,11.34
2019-03-23T08:08:57.700Z,11.42
2019-03-23T08:11:28.641Z,11.48
2019-03-23T08:14:18.964Z,11.63
2019-03-23T08:17:09.336Z,11.71
2019-03-23T08:19:59.670Z,11.73
2019-03-23T08:22:50.045Z,11.81
2019-03-23T08:25:40.413Z,11.78
2019-03-23T08:28:32.495Z,11.95
2019-03-23T08:31:22.885Z,11.91
2019-03-23T08:34:13.248Z,12.15
2019-03-23T08:37:03.584Z,12.28
2019-03-23T08:39:48.498Z,12.36
2019-03-23T08:42:24.700Z,12.43
2019-03-23T08:45:15.147Z,12.55
2019-03-23T08:48:05.537Z,12.53
2019-03-23T08:50:55.928Z,12.61
2019-03-23T08:53:46.242Z,12.77
2019-03-23T08:56:37.508Z,12.96
2019-03-23T08:59:28.628Z,13.01
2019-03-23T09:02:21.643Z,13.24
2019-03-23T09:05:11.394Z,13.30
2019-03-23T09:08:01.765Z,13.35
2019-03-23T09:10:52.059Z,13.25
2019-03-23T09:13:42.452Z,13.29
2019-03-23T09:16:32.794Z,13.23
2019-03-23T09:19:23.255Z,13.34
2019-03-23T09:22:13.607Z,13.48
2019-03-23T09:25:04.173Z,13.89
2019-03-23T09:27:35.203Z,13.95
2019-03-23T09:30:25.570Z,13.90
2019-03-23T09:33:15.919Z,14.01
2019-03-23T09:36:06.302Z,14.18
2019-03-23T09:38:56.619Z,14.33
2019-03-23T09:41:46.966Z,14.44
2019-03-23T09:44:37.343Z,14.51
2019-03-23T09:47:08.394Z,14.60
2019-03-23T09:49:58.727Z,14.70
2019-03-23T09:52:49.096Z,14.84
2019-03-23T09:55:39.415Z,14.89
2019-03-23T09:58:29.905Z,15.08
2019-03-23T10:01:20.305Z,15.18
2019-03-23T10:04:10.699Z,15.16
2019-03-23T10:07:01.055Z,15.21
2019-03-23T10:09:51.405Z,15.29
2019-03-23T10:12:41.755Z,15.47
2019-03-23T10:15:32.124Z,15.53
2019-03-23T10:18:22.727Z,15.44
2019-03-23T10:21:13.101Z,15.43
2019-03-23T10:24:03.482Z,15.45
2019-03-23T10:26:53.824Z,15.68
2019-03-23T10:29:44.146Z,15.83
2019-03-23T10:32:34.516Z,15.95
2019-03-23T10:35:24.869Z,16.16
2019-03-23T10:38:15.544Z,16.25
2019-03-23T10:41:05.933Z,16.19
2019-03-23T10:43:56.319Z,16.17
2019-03-23T10:46:46.645Z,16.37
2019-03-23T10:49:36.985Z,16.44
2019-03-23T10:52:27.361Z,16.55
2019-03-23T10:54:58.339Z,16.74
2019-03-23T10:57:48.674Z,16.77
2019-03-23T11:00:39.062Z,16.85
2019-03-23T11:03:11.610Z,16.95
2019-03-23T11:06:01.943Z,16.98
2019-03-23T11:08:52.255Z,17.17
2019-03-23T11:11:42.622Z,17.17
2019-03-23T11:14:32.979Z,17.06
2019-03-23T11:17:05.599Z,17.12
2019-03-23T11:19:55.936Z,17.15
2019-03-23T11:22:46.274Z,17.31
2019-03-23T11:25:36.637Z,17.45
2019-03-23T11:28:09.241Z,17.41
2019-03-23T11:30:59.571Z,17.20
2019-03-23T11:33:50.218Z,17.42
2019-03-23T11:36:40.565Z,17.54
2019-03-23T11:39:11.576Z,17.59
2019-03-23T11:41:44.277Z,17.58
2019-03-23T11:44:34.603Z,17.75
2019-03-23T11:47:24.997Z,17.94
2019-03-23T11:50:15.405Z,18.18
2019-03-23T11:53:05.837Z,18.41
2019-03-23T11:55:36.773Z,18.53
2019-03-23T11:58:27.142Z,18.56
2019-03-23T12:01:17.512Z,18.74
2019-03-23T12:04:07.902Z,18.64
2019-03-23T12:06:58.413Z,18.66
2019-03-23T12:09:48.823Z,18.79
2019-03-23T12:12:39.173Z,19.03
2019-03-23T12:15:29.908Z,19.23
2019-03-23T12:18:21.618Z,19.31
2019-03-23T12:21:11.945Z,19.56
2019-03-23T12:24:02.265Z,19.65
2019-03-23T12:26:52.606Z,19.61
2019-03-23T12:29:43.030Z,19.67
2019-03-23T12:32:33.375Z,19.88
2019-03-23T12:35:23.697Z,19.98
2019-03-23T12:38:14.064Z,20.23
2019-03-23T12:41:14.296Z,20.26
2019-03-23T12:43:49.412Z,20.23
2019-03-23T12:46:47.923Z,20.33
2019-03-23T12:49:22.713Z,20.60
2019-03-23T12:52:13.055Z,20.64
2019-03-23T12:55:03.431Z,20.72
2019-03-23T12:57:34.361Z,20.82
2019-03-23T13:00:24.707Z,20.96
2019-03-23T13:02:55.820Z,21.09
2019-03-23T13:05:46.182Z,21.35
2019-03-23T13:08:36.549Z,21.60
2019-03-23T13:11:34.876Z,21.72
2019-03-23T13:14:18.949Z,21.37
2019-03-23T13:16:49.932Z,21.61
2019-03-23T13:19:40.245Z,21.81
2019-03-23T13:22:30.596Z,22.08
2019-03-23T13:25:20.914Z,22.34
2019-03-23T13:28:11.277Z,22.87
2019-03-23T13:31:01.621Z,23.14
2019-03-23T13:33:52.009Z,23.40
2019-03-23T13:36:42.392Z,23.59
2019-03-23T13:39:13.340Z,23.68
2019-03-23T13:42:03.676Z,23.75
2019-03-23T13:44:54.036Z,23.69
2019-03-23T13:47:44.418Z,23.48
2019-03-23T13:50:34.782Z,23.72
2019-03-23T13:53:25.112Z,23.98
2019-03-23T13:56:15.488Z,24.08
2019-03-23T13:59:05.819Z,24.18
2019-03-23T14:01:56.251Z,23.88
2019-03-23T14:04:46.610Z,23.84
2019-03-23T14:07:37.446Z,24.10
2019-03-23T14:10:08.384Z,24.05
2019-03-23T14:12:58.746Z,24.14
2019-03-23T14:15:49.263Z,24.49
2019-03-23T14:18:39.696Z,25.21
2019-03-23T14:21:30.047Z,25.90
2019-03-23T14:24:20.436Z,26.51
2019-03-23T14:27:10.772Z,27.02
2019-03-23T14:30:01.166Z,27.82
2019-03-23T14:32:51.542Z,28.10
2019-03-23T14:35:41.917Z,28.66
2019-03-23T14:38:13.087Z,28.76
2019-03-23T14:41:03.493Z,29.11
2019-03-23T14:43:34.442Z,29.45
2019-03-23T14:46:24.810Z,29.68
2019-03-23T14:49:15.122Z,29.86
2019-03-23T14:52:05.472Z,29.34
2019-03-23T14:54:55.814Z,29.15
2019-03-23T14:57:46.244Z,29.59
2019-03-23T15:00:36.583Z,29.69
2019-03-23T15:03:27.010Z,30.27
2019-03-23T15:06:17.392Z,30.81
2019-03-23T15:09:08.677Z,30.29
2019-03-23T15:11:58.994Z,30.24
2019-03-23T15:14:49.468Z,30.29
2019-03-23T15:17:48.447Z,30.61
2019-03-23T15:20:23.323Z,30.51
2019-03-23T15:23:13.685Z,30.73
2019-03-23T15:25:44.642Z,30.38
2019-03-23T15:28:35.138Z,30.31
2019-03-23T15:31:25.494Z,30.77
2019-03-23T15:34:15.849Z,30.80
2019-03-23T15:37:06.206Z,30.86
2019-03-23T15:39:56.539Z,30.76
2019-03-23T15:42:27.592Z,30.69
2019-03-23T15:45:17.934Z,30.44
2019-03-23T15:48:08.315Z,29.86
2019-03-23T15:50:58.663Z,29.16
2019-03-23T15:53:49.059Z,28.99
2019-03-23T15:56:39.399Z,28.94
2019-03-23T15:59:29.800Z,28.60
2019-03-23T16:02:20.224Z,28.18
2019-03-23T16:05:10.813Z,28.37
2019-03-23T16:08:01.130Z,28.40
2019-03-23T16:10:51.527Z,28.52
2019-03-23T16:13:41.848Z,28.44
2019-03-23T16:16:12.980Z,28.30
2019-03-23T16:19:03.350Z,27.87
2019-03-23T16:21:53.832Z,27.25
2019-03-23T16:24:44.174Z,26.97
2019-03-23T16:27:34.598Z,26.63
2019-03-23T16:30:30.887Z,26.36
2019-03-23T16:33:03.916Z,26.01
2019-03-23T16:35:54.305Z,25.48
2019-03-23T16:38:44.740Z,25.00
2019-03-23T16:41:35.121Z,24.60
2019-03-23T16:44:25.557Z,24.09
2019-03-23T16:47:15.920Z,23.34
2019-03-23T16:49:47.042Z,22.52
2019-03-23T16:52:38.019Z,21.98
2019-03-23T16:55:29.591Z,21.39
2019-03-23T16:58:19.927Z,20.78
2019-03-23T17:01:10.344Z,20.10
2019-03-23T17:04:00.747Z,19.63
2019-03-23T17:06:51.403Z,19.10
2019-03-23T17:09:41.706Z,18.69
2019-03-23T17:12:32.065Z,18.35
2019-03-23T17:15:22.392Z,17.99
2019-03-23T17:18:12.755Z,17.65
2019-03-23T17:21:03.126Z,17.37
2019-03-23T17:23:34.089Z,17.08
2019-03-23T17:26:24.459Z,16.88
2019-03-23T17:29:14.783Z,16.68
2019-03-23T17:32:05.211Z,16.48
2019-03-23T17:34:55.564Z,16.33
2019-03-23T17:37:45.904Z,16.14
2019-03-23T17:40:36.241Z,15.98
2019-03-23T17:43:26.584Z,15.78
2019-03-23T17:46:16.971Z,15.65
2019-03-23T17:49:07.332Z,15.49
2019-03-23T17:51:57.680Z,15.34
2019-03-23T17:54:47.997Z,15.20
2019-03-23T17:57:38.351Z,15.08
2019-03-23T18:03:39.725Z,14.89
2019-03-23T18:06:30.120Z,14.85
2019-03-23T18:09:20.473Z,14.71
2019-03-23T18:12:10.850Z,14.61
2019-03-23T18:15:01.200Z,14.54
2019-03-23T18:17:51.583Z,14.39
2019-03-23T18:20:22.494Z,14.27
2019-03-23T18:23:12.845Z,14.20
2019-03-23T18:26:03.204Z,14.16
2019-03-23T18:28:36.050Z,14.10
2019-03-23T18:31:26.413Z,14.06
2019-03-23T18:33:57.375Z,14.00
2019-03-23T18:36:28.332Z,13.96
2019-03-23T18:38:59.327Z,13.88
2019-03-23T18:41:30.403Z,13.85
2019-03-23T18:44:20.762Z,13.80
2019-03-23T18:47:11.336Z,13.76
2019-03-23T18:50:01.687Z,13.69
2019-03-23T18:52:52.054Z,13.65
2019-03-23T18:55:42.384Z,13.59
2019-03-23T18:58:13.468Z,13.58
2019-03-23T19:01:04.247Z,13.56
2019-03-23T19:03:54.618Z,13.57
2019-03-23T19:06:44.986Z,13.59
2019-03-23T19:09:35.346Z,13.55
2019-03-23T19:12:25.661Z,13.57
2019-03-23T19:15:16.048Z,13.69
2019-03-23T19:18:06.815Z,13.82
2019-03-23T19:20:57.156Z,13.74
2019-03-23T19:23:47.521Z,13.73
2019-03-23T19:26:37.887Z,13.62
2019-03-23T19:29:28.244Z,13.51
2019-03-23T19:32:18.637Z,13.39
2019-03-23T19:35:09.140Z,13.37
2019-03-23T19:37:59.566Z,13.32
2019-03-23T19:40:49.911Z,13.29
2019-03-23T19:43:48.360Z,13.19
2019-03-23T19:46:32.360Z,13.10
2019-03-23T19:49:22.749Z,12.96
2019-03-23T19:51:53.721Z,12.85
2019-03-23T19:54:44.132Z,12.79
2019-03-23T19:57:34.414Z,12.75
2019-03-23T20:00:24.774Z,12.72
2019-03-23T20:03:15.107Z,12.82
2019-03-23T20:06:05.644Z,12.92
2019-03-23T20:09:14.916Z,12.93
2019-03-23T20:12:05.315Z,13.00
2019-03-23T20:14:55.693Z,13.00
2019-03-23T20:17:57.451Z,12.98
2019-03-23T20:20:29.828Z,12.92
2019-03-23T20:23:20.257Z,12.88
2019-03-23T20:26:10.626Z,12.88
2019-03-23T20:29:01.040Z,12.79
2019-03-23T20:31:51.386Z,12.70
2019-03-23T20:34:41.817Z,12.57
2019-03-23T20:37:32.151Z,12.53
2019-03-23T20:40:22.503Z,12.50
2019-03-23T20:43:12.847Z,12.44
2019-03-23T20:46:03.192Z,12.33
2019-03-23T20:49:13.810Z,12.28
2019-03-23T20:52:43.301Z,12.32
2019-03-23T20:58:47.332Z,12.27
2019-03-23T21:01:37.712Z,12.34
2019-03-23T21:04:28.126Z,12.30
2019-03-23T21:07:18.473Z,12.22
2019-03-23T21:10:09.093Z,12.01
2019-03-23T21:12:59.455Z,11.84
2019-03-23T21:15:49.835Z,11.74
2019-03-23T21:18:40.192Z,11.71
2019-03-23T21:21:11.171Z,11.65
2019-03-23T21:24:01.663Z,11.63
2019-03-23T21:26:52.063Z,11.51
2019-03-23T21:29:42.403Z,11.41
2019-03-23T21:32:13.454Z,11.37
2019-03-23T21:35:03.940Z,11.32
2019-03-23T21:37:54.319Z,11.22
2019-03-23T21:40:57.564Z,11.11
2019-03-23T21:43:29.222Z,10.99
2019-03-23T21:46:19.726Z,10.91
2019-03-23T21:49:10.067Z,10.82
2019-03-23T21:52:00.403Z,10.74
2019-03-23T21:54:50.747Z,10.77
2019-03-23T21:57:41.157Z,10.67
2019-03-23T22:00:51.116Z,10.67
2019-03-23T22:03:41.458Z,10.63
2019-03-23T22:06:31.801Z,10.63
2019-03-23T22:09:22.172Z,10.57
2019-03-23T22:12:12.551Z,10.56
2019-03-23T22:15:02.910Z,10.50
2019-03-23T22:17:53.273Z,10.40
2019-03-23T22:20:43.583Z,10.32
2019-03-23T22:23:33.972Z,10.29
2019-03-23T22:26:24.329Z,10.25
2019-03-23T22:29:14.719Z,10.26
2019-03-23T22:32:05.053Z,10.17
2019-03-23T22:34:55.400Z,10.09
2019-03-23T22:37:26.349Z,10.03
2019-03-23T22:39:57.386Z,10.06
2019-03-23T22:42:47.705Z,10.16
2019-03-23T22:45:38.098Z,10.19
2019-03-23T22:48:28.479Z,10.23
2019-03-23T22:51:18.856Z,10.18
2019-03-23T22:54:09.216Z,10.13
2019-03-23T22:56:59.546Z,10.14
2019-03-23T22:59:49.863Z,10.06
2019-03-23T23:02:40.222Z,10.00
2019-03-23T23:05:30.585Z,9.92
2019-03-23T23:08:21.022Z,9.85
2019-03-23T23:11:11.351Z,9.74
2019-03-23T23:14:01.803Z,9.71
2019-03-23T23:16:34.349Z,9.65
2019-03-23T23:19:24.718Z,9.69
2019-03-23T23:22:15.058Z,9.70
2019-03-23T23:25:05.924Z,9.63
2019-03-23T23:27:56.245Z,9.52
2019-03-23T23:30:46.596Z,9.49
2019-03-23T23:33:17.599Z,9.43
2019-03-23T23:36:07.959Z,9.39
2019-03-23T23:38:58.292Z,9.37
2019-03-23T23:41:48.635Z,9.39
2019-03-23T23:44:38.990Z,9.33
2019-03-23T23:47:10.035Z,9.27
2019-03-23T23:50:00.396Z,9.19
2019-03-23T23:52:50.692Z,9.08
2019-03-23T23:55:41.012Z,9.03
2019-03-23T23:58:13.604Z,9.02
